sensor_id;sensor_type;location;lat;lon;timestamp;P1;durP1;ratioP1;P2;durP2;ratioP2
11342;SDS011;5726;42.160;24.746;2024-02-23T00:01:51;23.30;;;14.73;;
11342;SDS011;5726;42.160;24.746;2024-02-23T00:04:17;21.90;;;14.70;;
11342;SDS011;5726;42.160;24.746;2024-02-23T00:06:44;21.00;;;13.63;;
11342;SDS011;5726;42.160;24.746;2024-02-23T00:09:09;21.30;;;13.60;;
11342;SDS011;5726;42.160;24.746;2024-02-23T00:11:35;25.27;;;15.20;;
11342;SDS011;5726;42.160;24.746;2024-02-23T00:14:04;22.60;;;14.33;;
11342;SDS011;5726;42.160;24.746;2024-02-23T00:16:30;28.47;;;17.70;;
11342;SDS011;5726;42.160;24.746;2024-02-23T00:18:56;30.07;;;18.10;;
11342;SDS011;5726;42.160;24.746;2024-02-23T00:21:21;31.23;;;17.93;;
11342;SDS011;5726;42.160;24.746;2024-02-23T00:23:46;30.43;;;17.10;;
11342;SDS011;5726;42.160;24.746;2024-02-23T00:26:12;27.73;;;16.27;;
11342;SDS011;5726;42.160;24.746;2024-02-23T00:28:37;27.90;;;17.70;;
11342;SDS011;5726;42.160;24.746;2024-02-23T00:31:03;26.53;;;17.10;;
11342;SDS011;5726;42.160;24.746;2024-02-23T00:33:28;26.50;;;15.57;;
11342;SDS011;5726;42.160;24.746;2024-02-23T00:35:54;27.53;;;16.17;;
11342;SDS011;5726;42.160;24.746;2024-02-23T00:38:20;27.07;;;15.33;;
11342;SDS011;5726;42.160;24.746;2024-02-23T00:40:46;24.13;;;14.30;;
11342;SDS011;5726;42.160;24.746;2024-02-23T00:43:12;23.20;;;14.30;;
11342;SDS011;5726;42.160;24.746;2024-02-23T00:45:37;25.43;;;15.10;;
11342;SDS011;5726;42.160;24.746;2024-02-23T00:48:03;23.87;;;15.20;;
11342;SDS011;5726;42.160;24.746;2024-02-23T00:50:28;24.27;;;14.90;;
11342;SDS011;5726;42.160;24.746;2024-02-23T00:52:54;22.23;;;14.70;;
11342;SDS011;5726;42.160;24.746;2024-02-23T00:55:19;25.37;;;15.23;;
11342;SDS011;5726;42.160;24.746;2024-02-23T00:57:45;22.73;;;14.63;;
11342;SDS011;5726;42.160;24.746;2024-02-23T01:00:11;23.20;;;14.33;;
11342;SDS011;5726;42.160;24.746;2024-02-23T01:02:37;26.60;;;14.57;;
11342;SDS011;5726;42.160;24.746;2024-02-23T01:05:03;24.53;;;15.30;;
11342;SDS011;5726;42.160;24.746;2024-02-23T01:07:29;23.60;;;14.33;;
11342;SDS011;5726;42.160;24.746;2024-02-23T01:09:55;24.03;;;15.10;;
11342;SDS011;5726;42.160;24.746;2024-02-23T01:12:21;23.93;;;15.07;;
11342;SDS011;5726;42.160;24.746;2024-02-23T01:14:46;24.60;;;15.17;;
11342;SDS011;5726;42.160;24.746;2024-02-23T01:17:13;26.00;;;14.67;;
11342;SDS011;5726;42.160;24.746;2024-02-23T01:19:40;24.93;;;14.20;;
11342;SDS011;5726;42.160;24.746;2024-02-23T01:22:06;25.70;;;15.17;;
11342;SDS011;5726;42.160;24.746;2024-02-23T01:24:32;22.70;;;14.40;;
11342;SDS011;5726;42.160;24.746;2024-02-23T01:26:57;24.17;;;15.17;;
11342;SDS011;5726;42.160;24.746;2024-02-23T01:29:23;27.50;;;14.47;;
11342;SDS011;5726;42.160;24.746;2024-02-23T01:31:51;26.63;;;14.23;;
11342;SDS011;5726;42.160;24.746;2024-02-23T01:34:16;24.07;;;14.50;;
11342;SDS011;5726;42.160;24.746;2024-02-23T01:36:42;24.60;;;15.07;;
11342;SDS011;5726;42.160;24.746;2024-02-23T01:39:08;26.70;;;15.00;;
11342;SDS011;5726;42.160;24.746;2024-02-23T01:41:34;24.90;;;15.43;;
11342;SDS011;5726;42.160;24.746;2024-02-23T01:44:00;29.83;;;15.03;;
11342;SDS011;5726;42.160;24.746;2024-02-23T01:46:26;34.03;;;21.90;;
11342;SDS011;5726;42.160;24.746;2024-02-23T01:48:51;46.87;;;25.83;;
11342;SDS011;5726;42.160;24.746;2024-02-23T01:51:17;34.97;;;23.07;;
11342;SDS011;5726;42.160;24.746;2024-02-23T01:53:43;27.77;;;15.80;;
11342;SDS011;5726;42.160;24.746;2024-02-23T01:56:09;19.63;;;14.00;;
11342;SDS011;5726;42.160;24.746;2024-02-23T01:58:36;21.27;;;13.63;;
11342;SDS011;5726;42.160;24.746;2024-02-23T02:01:02;23.00;;;13.63;;
11342;SDS011;5726;42.160;24.746;2024-02-23T02:03:28;38.30;;;14.80;;
11342;SDS011;5726;42.160;24.746;2024-02-23T02:05:54;23.73;;;14.00;;
11342;SDS011;5726;42.160;24.746;2024-02-23T02:08:23;22.07;;;14.20;;
11342;SDS011;5726;42.160;24.746;2024-02-23T02:10:50;23.80;;;14.93;;
11342;SDS011;5726;42.160;24.746;2024-02-23T02:13:16;26.07;;;15.73;;
11342;SDS011;5726;42.160;24.746;2024-02-23T02:15:41;26.47;;;15.23;;
11342;SDS011;5726;42.160;24.746;2024-02-23T02:18:09;25.53;;;14.90;;
11342;SDS011;5726;42.160;24.746;2024-02-23T02:20:36;62.73;;;38.63;;
11342;SDS011;5726;42.160;24.746;2024-02-23T02:23:02;28.30;;;16.53;;
11342;SDS011;5726;42.160;24.746;2024-02-23T02:25:28;39.93;;;26.73;;
11342;SDS011;5726;42.160;24.746;2024-02-23T02:27:54;21.30;;;13.80;;
11342;SDS011;5726;42.160;24.746;2024-02-23T02:30:19;20.30;;;13.23;;
11342;SDS011;5726;42.160;24.746;2024-02-23T02:32:45;22.73;;;13.77;;
11342;SDS011;5726;42.160;24.746;2024-02-23T02:35:11;22.03;;;13.17;;
11342;SDS011;5726;42.160;24.746;2024-02-23T02:37:37;21.10;;;13.13;;
11342;SDS011;5726;42.160;24.746;2024-02-23T02:40:03;19.43;;;12.97;;
11342;SDS011;5726;42.160;24.746;2024-02-23T02:42:29;19.53;;;12.57;;
11342;SDS011;5726;42.160;24.746;2024-02-23T02:44:55;21.33;;;13.97;;
11342;SDS011;5726;42.160;24.746;2024-02-23T02:47:20;21.40;;;14.00;;
11342;SDS011;5726;42.160;24.746;2024-02-23T02:49:46;27.53;;;16.50;;
11342;SDS011;5726;42.160;24.746;2024-02-23T02:52:11;53.07;;;30.00;;
11342;SDS011;5726;42.160;24.746;2024-02-23T02:54:37;29.77;;;16.10;;
11342;SDS011;5726;42.160;24.746;2024-02-23T02:57:03;22.20;;;13.20;;
11342;SDS011;5726;42.160;24.746;2024-02-23T02:59:28;23.83;;;11.93;;
11342;SDS011;5726;42.160;24.746;2024-02-23T03:01:54;21.00;;;13.67;;
11342;SDS011;5726;42.160;24.746;2024-02-23T03:04:20;26.07;;;14.80;;
11342;SDS011;5726;42.160;24.746;2024-02-23T03:06:46;26.07;;;14.87;;
11342;SDS011;5726;42.160;24.746;2024-02-23T03:09:11;31.60;;;14.10;;
11342;SDS011;5726;42.160;24.746;2024-02-23T03:11:37;44.83;;;24.53;;
11342;SDS011;5726;42.160;24.746;2024-02-23T03:14:02;23.20;;;14.17;;
11342;SDS011;5726;42.160;24.746;2024-02-23T03:16:28;41.80;;;22.23;;
11342;SDS011;5726;42.160;24.746;2024-02-23T03:18:56;24.77;;;15.37;;
11342;SDS011;5726;42.160;24.746;2024-02-23T03:21:21;26.77;;;15.07;;
11342;SDS011;5726;42.160;24.746;2024-02-23T03:23:47;22.13;;;13.93;;
11342;SDS011;5726;42.160;24.746;2024-02-23T03:26:12;22.83;;;13.27;;
11342;SDS011;5726;42.160;24.746;2024-02-23T03:28:38;22.20;;;12.10;;
11342;SDS011;5726;42.160;24.746;2024-02-23T03:31:04;17.70;;;11.83;;
11342;SDS011;5726;42.160;24.746;2024-02-23T03:33:29;23.17;;;12.83;;
11342;SDS011;5726;42.160;24.746;2024-02-23T03:35:57;20.73;;;13.23;;
11342;SDS011;5726;42.160;24.746;2024-02-23T03:38:23;24.17;;;13.80;;
11342;SDS011;5726;42.160;24.746;2024-02-23T03:40:48;20.73;;;12.63;;
11342;SDS011;5726;42.160;24.746;2024-02-23T03:43:14;21.73;;;11.77;;
11342;SDS011;5726;42.160;24.746;2024-02-23T03:45:39;19.40;;;11.93;;
11342;SDS011;5726;42.160;24.746;2024-02-23T03:48:05;18.43;;;11.53;;
11342;SDS011;5726;42.160;24.746;2024-02-23T03:50:30;21.03;;;12.30;;
11342;SDS011;5726;42.160;24.746;2024-02-23T03:52:56;16.00;;;11.53;;
11342;SDS011;5726;42.160;24.746;2024-02-23T03:55:22;20.87;;;12.97;;
11342;SDS011;5726;42.160;24.746;2024-02-23T03:57:47;17.57;;;11.33;;
11342;SDS011;5726;42.160;24.746;2024-02-23T04:00:13;25.33;;;12.77;;
11342;SDS011;5726;42.160;24.746;2024-02-23T04:02:39;27.50;;;13.07;;
11342;SDS011;5726;42.160;24.746;2024-02-23T04:05:05;19.60;;;12.20;;
11342;SDS011;5726;42.160;24.746;2024-02-23T04:07:31;24.03;;;13.00;;
11342;SDS011;5726;42.160;24.746;2024-02-23T04:09:57;26.37;;;13.17;;
11342;SDS011;5726;42.160;24.746;2024-02-23T04:12:22;22.57;;;12.20;;
11342;SDS011;5726;42.160;24.746;2024-02-23T04:14:48;23.73;;;12.37;;
11342;SDS011;5726;42.160;24.746;2024-02-23T04:17:13;22.07;;;13.13;;
11342;SDS011;5726;42.160;24.746;2024-02-23T04:19:42;19.93;;;12.77;;
11342;SDS011;5726;42.160;24.746;2024-02-23T04:22:08;23.70;;;13.40;;
11342;SDS011;5726;42.160;24.746;2024-02-23T04:24:41;22.93;;;14.57;;
11342;SDS011;5726;42.160;24.746;2024-02-23T04:27:07;26.87;;;13.60;;
11342;SDS011;5726;42.160;24.746;2024-02-23T04:29:33;23.83;;;14.30;;
11342;SDS011;5726;42.160;24.746;2024-02-23T04:32:00;24.07;;;14.67;;
11342;SDS011;5726;42.160;24.746;2024-02-23T04:34:26;26.57;;;13.93;;
11342;SDS011;5726;42.160;24.746;2024-02-23T04:36:55;25.60;;;14.73;;
11342;SDS011;5726;42.160;24.746;2024-02-23T04:39:20;27.23;;;15.37;;
11342;SDS011;5726;42.160;24.746;2024-02-23T04:41:46;23.33;;;14.03;;
11342;SDS011;5726;42.160;24.746;2024-02-23T04:44:12;25.77;;;14.80;;
11342;SDS011;5726;42.160;24.746;2024-02-23T04:46:38;26.60;;;15.20;;
11342;SDS011;5726;42.160;24.746;2024-02-23T04:49:03;25.20;;;14.10;;
11342;SDS011;5726;42.160;24.746;2024-02-23T04:51:29;29.33;;;14.53;;
11342;SDS011;5726;42.160;24.746;2024-02-23T04:53:54;24.37;;;14.80;;
11342;SDS011;5726;42.160;24.746;2024-02-23T04:56:20;27.73;;;13.97;;
11342;SDS011;5726;42.160;24.746;2024-02-23T04:58:45;29.43;;;13.33;;
11342;SDS011;5726;42.160;24.746;2024-02-23T05:01:12;25.43;;;14.93;;
11342;SDS011;5726;42.160;24.746;2024-02-23T05:03:37;25.37;;;14.20;;
11342;SDS011;5726;42.160;24.746;2024-02-23T05:06:03;28.53;;;13.63;;
11342;SDS011;5726;42.160;24.746;2024-02-23T05:08:29;23.77;;;14.23;;
11342;SDS011;5726;42.160;24.746;2024-02-23T05:10:56;30.83;;;14.93;;
11342;SDS011;5726;42.160;24.746;2024-02-23T05:13:21;27.47;;;15.47;;
11342;SDS011;5726;42.160;24.746;2024-02-23T05:15:48;29.47;;;16.87;;
11342;SDS011;5726;42.160;24.746;2024-02-23T05:18:14;31.27;;;17.03;;
11342;SDS011;5726;42.160;24.746;2024-02-23T05:20:40;27.47;;;17.00;;
11342;SDS011;5726;42.160;24.746;2024-02-23T05:23:06;29.87;;;16.90;;
11342;SDS011;5726;42.160;24.746;2024-02-23T05:25:31;35.07;;;18.53;;
11342;SDS011;5726;42.160;24.746;2024-02-23T05:27:57;34.77;;;17.43;;
11342;SDS011;5726;42.160;24.746;2024-02-23T05:30:22;32.10;;;16.97;;
11342;SDS011;5726;42.160;24.746;2024-02-23T05:32:48;30.03;;;16.50;;
11342;SDS011;5726;42.160;24.746;2024-02-23T05:35:14;31.33;;;17.70;;
11342;SDS011;5726;42.160;24.746;2024-02-23T05:37:40;28.50;;;15.50;;
11342;SDS011;5726;42.160;24.746;2024-02-23T05:40:06;30.87;;;15.83;;
11342;SDS011;5726;42.160;24.746;2024-02-23T05:42:38;25.77;;;15.93;;
11342;SDS011;5726;42.160;24.746;2024-02-23T05:45:04;24.27;;;14.80;;
11342;SDS011;5726;42.160;24.746;2024-02-23T05:47:33;32.97;;;15.03;;
11342;SDS011;5726;42.160;24.746;2024-02-23T05:49:59;29.70;;;14.87;;
11342;SDS011;5726;42.160;24.746;2024-02-23T05:52:25;25.97;;;15.07;;
11342;SDS011;5726;42.160;24.746;2024-02-23T05:54:50;27.53;;;14.43;;
11342;SDS011;5726;42.160;24.746;2024-02-23T05:57:17;26.87;;;14.20;;
11342;SDS011;5726;42.160;24.746;2024-02-23T05:59:42;20.07;;;13.27;;
11342;SDS011;5726;42.160;24.746;2024-02-23T06:02:08;21.87;;;13.60;;
11342;SDS011;5726;42.160;24.746;2024-02-23T06:04:33;26.60;;;14.23;;
11342;SDS011;5726;42.160;24.746;2024-02-23T06:06:59;22.03;;;12.43;;
11342;SDS011;5726;42.160;24.746;2024-02-23T06:09:24;22.67;;;11.77;;
11342;SDS011;5726;42.160;24.746;2024-02-23T06:11:50;21.70;;;12.33;;
11342;SDS011;5726;42.160;24.746;2024-02-23T06:14:15;20.27;;;12.53;;
11342;SDS011;5726;42.160;24.746;2024-02-23T06:16:41;21.83;;;11.57;;
11342;SDS011;5726;42.160;24.746;2024-02-23T06:19:07;18.47;;;12.20;;
11342;SDS011;5726;42.160;24.746;2024-02-23T06:21:32;18.90;;;11.33;;
11342;SDS011;5726;42.160;24.746;2024-02-23T06:23:58;17.77;;;12.03;;
11342;SDS011;5726;42.160;24.746;2024-02-23T06:26:24;18.07;;;12.57;;
11342;SDS011;5726;42.160;24.746;2024-02-23T06:28:49;22.53;;;12.83;;
11342;SDS011;5726;42.160;24.746;2024-02-23T06:31:15;20.03;;;12.70;;
11342;SDS011;5726;42.160;24.746;2024-02-23T06:33:40;23.20;;;12.97;;
11342;SDS011;5726;42.160;24.746;2024-02-23T06:36:06;24.53;;;13.40;;
11342;SDS011;5726;42.160;24.746;2024-02-23T06:38:33;20.47;;;13.10;;
11342;SDS011;5726;42.160;24.746;2024-02-23T06:41:17;18.90;;;12.50;;
11342;SDS011;5726;42.160;24.746;2024-02-23T06:43:42;20.57;;;12.30;;
11342;SDS011;5726;42.160;24.746;2024-02-23T06:46:08;23.47;;;13.80;;
11342;SDS011;5726;42.160;24.746;2024-02-23T06:48:35;24.17;;;13.47;;
11342;SDS011;5726;42.160;24.746;2024-02-23T06:51:02;20.93;;;14.07;;
11342;SDS011;5726;42.160;24.746;2024-02-23T06:53:28;23.40;;;13.57;;
11342;SDS011;5726;42.160;24.746;2024-02-23T06:55:54;21.30;;;14.23;;
11342;SDS011;5726;42.160;24.746;2024-02-23T06:58:20;20.53;;;13.70;;
11342;SDS011;5726;42.160;24.746;2024-02-23T07:00:45;21.33;;;13.23;;
11342;SDS011;5726;42.160;24.746;2024-02-23T07:03:11;26.37;;;14.77;;
11342;SDS011;5726;42.160;24.746;2024-02-23T07:05:37;25.87;;;13.57;;
11342;SDS011;5726;42.160;24.746;2024-02-23T07:08:02;20.60;;;12.73;;
11342;SDS011;5726;42.160;24.746;2024-02-23T07:10:28;21.17;;;12.40;;
11342;SDS011;5726;42.160;24.746;2024-02-23T07:12:54;19.30;;;11.90;;
11342;SDS011;5726;42.160;24.746;2024-02-23T07:15:21;22.33;;;13.27;;
11342;SDS011;5726;42.160;24.746;2024-02-23T07:17:47;17.63;;;12.30;;
11342;SDS011;5726;42.160;24.746;2024-02-23T07:20:13;19.37;;;12.13;;
11342;SDS011;5726;42.160;24.746;2024-02-23T07:22:39;20.23;;;12.97;;
11342;SDS011;5726;42.160;24.746;2024-02-23T07:25:05;22.87;;;13.23;;
11342;SDS011;5726;42.160;24.746;2024-02-23T07:27:30;23.53;;;13.50;;
11342;SDS011;5726;42.160;24.746;2024-02-23T07:29:56;22.07;;;14.27;;
11342;SDS011;5726;42.160;24.746;2024-02-23T07:32:22;21.83;;;12.50;;
11342;SDS011;5726;42.160;24.746;2024-02-23T07:34:47;20.53;;;12.10;;
11342;SDS011;5726;42.160;24.746;2024-02-23T07:37:14;22.23;;;12.80;;
11342;SDS011;5726;42.160;24.746;2024-02-23T07:39:40;19.77;;;11.93;;
11342;SDS011;5726;42.160;24.746;2024-02-23T07:42:05;24.57;;;15.17;;
11342;SDS011;5726;42.160;24.746;2024-02-23T07:44:31;23.20;;;14.43;;
11342;SDS011;5726;42.160;24.746;2024-02-23T07:46:57;22.53;;;13.07;;
11342;SDS011;5726;42.160;24.746;2024-02-23T07:49:24;20.67;;;13.30;;
11342;SDS011;5726;42.160;24.746;2024-02-23T07:51:53;21.80;;;13.70;;
11342;SDS011;5726;42.160;24.746;2024-02-23T07:54:19;18.17;;;13.00;;
11342;SDS011;5726;42.160;24.746;2024-02-23T07:56:44;20.93;;;12.67;;
11342;SDS011;5726;42.160;24.746;2024-02-23T07:59:10;20.13;;;13.17;;
11342;SDS011;5726;42.160;24.746;2024-02-23T08:01:36;24.13;;;14.23;;
11342;SDS011;5726;42.160;24.746;2024-02-23T08:04:01;29.90;;;15.70;;
11342;SDS011;5726;42.160;24.746;2024-02-23T08:06:28;24.33;;;14.63;;
11342;SDS011;5726;42.160;24.746;2024-02-23T08:08:53;24.23;;;14.17;;
11342;SDS011;5726;42.160;24.746;2024-02-23T08:11:20;20.57;;;13.27;;
11342;SDS011;5726;42.160;24.746;2024-02-23T08:13:46;18.13;;;13.27;;
11342;SDS011;5726;42.160;24.746;2024-02-23T08:16:11;20.17;;;12.80;;
11342;SDS011;5726;42.160;24.746;2024-02-23T08:18:37;21.43;;;13.87;;
11342;SDS011;5726;42.160;24.746;2024-02-23T08:21:02;21.10;;;13.80;;
11342;SDS011;5726;42.160;24.746;2024-02-23T08:23:30;24.73;;;14.83;;
11342;SDS011;5726;42.160;24.746;2024-02-23T08:25:55;26.47;;;14.57;;
11342;SDS011;5726;42.160;24.746;2024-02-23T08:28:25;26.10;;;13.60;;
11342;SDS011;5726;42.160;24.746;2024-02-23T08:30:51;20.83;;;14.37;;
11342;SDS011;5726;42.160;24.746;2024-02-23T08:33:18;19.80;;;13.87;;
11342;SDS011;5726;42.160;24.746;2024-02-23T08:35:43;21.33;;;13.83;;
11342;SDS011;5726;42.160;24.746;2024-02-23T08:38:09;22.63;;;14.30;;
11342;SDS011;5726;42.160;24.746;2024-02-23T08:40:34;22.70;;;14.30;;
11342;SDS011;5726;42.160;24.746;2024-02-23T08:43:00;24.50;;;15.13;;
11342;SDS011;5726;42.160;24.746;2024-02-23T08:45:25;22.33;;;14.23;;
11342;SDS011;5726;42.160;24.746;2024-02-23T08:47:51;22.13;;;14.90;;
11342;SDS011;5726;42.160;24.746;2024-02-23T08:50:16;23.60;;;15.47;;
11342;SDS011;5726;42.160;24.746;2024-02-23T08:52:42;21.33;;;14.67;;
11342;SDS011;5726;42.160;24.746;2024-02-23T08:55:07;25.33;;;15.83;;
11342;SDS011;5726;42.160;24.746;2024-02-23T08:57:33;20.27;;;14.63;;
11342;SDS011;5726;42.160;24.746;2024-02-23T08:59:59;21.07;;;14.43;;
11342;SDS011;5726;42.160;24.746;2024-02-23T09:02:24;18.40;;;13.57;;
11342;SDS011;5726;42.160;24.746;2024-02-23T09:04:50;24.80;;;15.43;;
11342;SDS011;5726;42.160;24.746;2024-02-23T09:07:16;20.73;;;14.97;;
11342;SDS011;5726;42.160;24.746;2024-02-23T09:09:45;22.27;;;15.40;;
11342;SDS011;5726;42.160;24.746;2024-02-23T09:12:11;26.63;;;15.60;;
11342;SDS011;5726;42.160;24.746;2024-02-23T09:14:37;22.33;;;14.73;;
11342;SDS011;5726;42.160;24.746;2024-02-23T09:17:03;20.77;;;14.50;;
11342;SDS011;5726;42.160;24.746;2024-02-23T09:19:31;26.07;;;14.57;;
11342;SDS011;5726;42.160;24.746;2024-02-23T09:21:56;21.67;;;14.43;;
11342;SDS011;5726;42.160;24.746;2024-02-23T09:24:22;21.53;;;14.30;;
11342;SDS011;5726;42.160;24.746;2024-02-23T09:26:47;21.87;;;13.93;;
11342;SDS011;5726;42.160;24.746;2024-02-23T09:29:13;23.37;;;15.13;;
11342;SDS011;5726;42.160;24.746;2024-02-23T09:31:39;22.83;;;14.43;;
11342;SDS011;5726;42.160;24.746;2024-02-23T09:34:04;23.23;;;14.50;;
11342;SDS011;5726;42.160;24.746;2024-02-23T09:36:29;23.27;;;15.10;;
11342;SDS011;5726;42.160;24.746;2024-02-23T09:38:55;25.27;;;15.17;;
11342;SDS011;5726;42.160;24.746;2024-02-23T09:41:21;23.17;;;14.80;;
11342;SDS011;5726;42.160;24.746;2024-02-23T09:43:48;23.57;;;14.67;;
11342;SDS011;5726;42.160;24.746;2024-02-23T09:46:15;19.43;;;13.43;;
11342;SDS011;5726;42.160;24.746;2024-02-23T09:48:44;20.97;;;14.50;;
11342;SDS011;5726;42.160;24.746;2024-02-23T09:51:15;24.40;;;14.60;;
11342;SDS011;5726;42.160;24.746;2024-02-23T09:53:41;19.90;;;12.87;;
11342;SDS011;5726;42.160;24.746;2024-02-23T09:56:10;22.50;;;13.63;;
11342;SDS011;5726;42.160;24.746;2024-02-23T09:58:36;22.80;;;13.43;;
11342;SDS011;5726;42.160;24.746;2024-02-23T10:01:02;20.33;;;13.23;;
11342;SDS011;5726;42.160;24.746;2024-02-23T10:03:29;20.10;;;13.53;;
11342;SDS011;5726;42.160;24.746;2024-02-23T10:05:58;22.00;;;14.10;;
11342;SDS011;5726;42.160;24.746;2024-02-23T10:08:26;23.80;;;13.63;;
11342;SDS011;5726;42.160;24.746;2024-02-23T10:10:52;25.57;;;14.27;;
11342;SDS011;5726;42.160;24.746;2024-02-23T10:13:24;22.90;;;13.73;;
11342;SDS011;5726;42.160;24.746;2024-02-23T10:15:53;20.80;;;14.20;;
11342;SDS011;5726;42.160;24.746;2024-02-23T10:18:19;22.53;;;14.23;;
11342;SDS011;5726;42.160;24.746;2024-02-23T10:20:45;19.57;;;13.47;;
11342;SDS011;5726;42.160;24.746;2024-02-23T10:23:11;21.63;;;14.27;;
11342;SDS011;5726;42.160;24.746;2024-02-23T10:25:37;20.07;;;13.93;;
11342;SDS011;5726;42.160;24.746;2024-02-23T10:28:03;22.97;;;14.50;;
11342;SDS011;5726;42.160;24.746;2024-02-23T10:30:30;23.33;;;14.77;;
11342;SDS011;5726;42.160;24.746;2024-02-23T10:32:56;23.80;;;15.63;;
11342;SDS011;5726;42.160;24.746;2024-02-23T10:35:23;22.10;;;15.37;;
11342;SDS011;5726;42.160;24.746;2024-02-23T10:37:50;28.00;;;15.60;;
11342;SDS011;5726;42.160;24.746;2024-02-23T10:40:18;24.80;;;15.70;;
11342;SDS011;5726;42.160;24.746;2024-02-23T10:42:45;21.50;;;14.73;;
11342;SDS011;5726;42.160;24.746;2024-02-23T10:45:14;20.17;;;14.10;;
11342;SDS011;5726;42.160;24.746;2024-02-23T10:47:41;18.43;;;12.97;;
11342;SDS011;5726;42.160;24.746;2024-02-23T10:50:07;19.50;;;12.77;;
11342;SDS011;5726;42.160;24.746;2024-02-23T10:52:32;21.00;;;13.23;;
11342;SDS011;5726;42.160;24.746;2024-02-23T10:55:03;19.07;;;12.63;;
11342;SDS011;5726;42.160;24.746;2024-02-23T10:57:31;21.20;;;13.93;;
11342;SDS011;5726;42.160;24.746;2024-02-23T10:59:57;20.53;;;13.37;;
11342;SDS011;5726;42.160;24.746;2024-02-23T11:02:23;19.50;;;14.00;;
11342;SDS011;5726;42.160;24.746;2024-02-23T11:04:54;20.87;;;12.93;;
11342;SDS011;5726;42.160;24.746;2024-02-23T11:07:22;23.43;;;15.03;;
11342;SDS011;5726;42.160;24.746;2024-02-23T11:10:00;19.47;;;12.37;;
11342;SDS011;5726;42.160;24.746;2024-02-23T11:12:26;20.10;;;12.00;;
11342;SDS011;5726;42.160;24.746;2024-02-23T11:14:57;18.17;;;12.10;;
11342;SDS011;5726;42.160;24.746;2024-02-23T11:17:26;17.30;;;11.70;;
11342;SDS011;5726;42.160;24.746;2024-02-23T11:19:54;20.10;;;13.40;;
11342;SDS011;5726;42.160;24.746;2024-02-23T11:22:27;18.80;;;12.73;;
11342;SDS011;5726;42.160;24.746;2024-02-23T11:25:06;23.77;;;15.70;;
11342;SDS011;5726;42.160;24.746;2024-02-23T11:27:36;15.03;;;10.77;;
11342;SDS011;5726;42.160;24.746;2024-02-23T11:30:06;18.23;;;11.30;;
11342;SDS011;5726;42.160;24.746;2024-02-23T11:32:45;15.30;;;9.27;;
11342;SDS011;5726;42.160;24.746;2024-02-23T11:35:13;14.60;;;8.40;;
11342;SDS011;5726;42.160;24.746;2024-02-23T11:37:44;13.50;;;8.70;;
11342;SDS011;5726;42.160;24.746;2024-02-23T11:40:32;12.87;;;9.70;;
11342;SDS011;5726;42.160;24.746;2024-02-23T11:42:58;12.27;;;9.07;;
11342;SDS011;5726;42.160;24.746;2024-02-23T11:45:30;16.87;;;9.90;;
11342;SDS011;5726;42.160;24.746;2024-02-23T11:47:56;16.10;;;10.40;;
11342;SDS011;5726;42.160;24.746;2024-02-23T11:50:21;15.60;;;10.07;;
11342;SDS011;5726;42.160;24.746;2024-02-23T11:52:47;17.57;;;11.03;;
11342;SDS011;5726;42.160;24.746;2024-02-23T11:55:12;15.43;;;10.23;;
11342;SDS011;5726;42.160;24.746;2024-02-23T11:57:44;15.90;;;10.97;;
11342;SDS011;5726;42.160;24.746;2024-02-23T12:00:10;14.80;;;9.47;;
11342;SDS011;5726;42.160;24.746;2024-02-23T12:02:36;19.57;;;10.60;;
11342;SDS011;5726;42.160;24.746;2024-02-23T12:05:01;18.50;;;12.00;;
11342;SDS011;5726;42.160;24.746;2024-02-23T12:07:28;19.07;;;12.13;;
11342;SDS011;5726;42.160;24.746;2024-02-23T12:09:55;17.27;;;11.80;;
11342;SDS011;5726;42.160;24.746;2024-02-23T12:12:25;18.33;;;12.50;;
11342;SDS011;5726;42.160;24.746;2024-02-23T12:14:51;17.93;;;12.20;;
11342;SDS011;5726;42.160;24.746;2024-02-23T12:17:18;17.83;;;12.10;;
11342;SDS011;5726;42.160;24.746;2024-02-23T12:19:43;20.77;;;14.20;;
11342;SDS011;5726;42.160;24.746;2024-02-23T12:22:12;21.77;;;12.93;;
11342;SDS011;5726;42.160;24.746;2024-02-23T12:24:37;17.30;;;12.67;;
11342;SDS011;5726;42.160;24.746;2024-02-23T12:27:08;17.23;;;11.87;;
11342;SDS011;5726;42.160;24.746;2024-02-23T12:29:33;20.67;;;11.57;;
11342;SDS011;5726;42.160;24.746;2024-02-23T12:32:02;16.37;;;10.97;;
11342;SDS011;5726;42.160;24.746;2024-02-23T12:34:31;13.70;;;9.87;;
11342;SDS011;5726;42.160;24.746;2024-02-23T12:36:57;16.30;;;10.80;;
11342;SDS011;5726;42.160;24.746;2024-02-23T12:39:23;13.43;;;9.40;;
11342;SDS011;5726;42.160;24.746;2024-02-23T12:41:48;15.40;;;9.70;;
11342;SDS011;5726;42.160;24.746;2024-02-23T12:44:15;17.00;;;9.60;;
11342;SDS011;5726;42.160;24.746;2024-02-23T12:46:41;13.30;;;9.70;;
11342;SDS011;5726;42.160;24.746;2024-02-23T12:49:06;11.83;;;9.17;;
11342;SDS011;5726;42.160;24.746;2024-02-23T12:51:32;13.47;;;9.67;;
11342;SDS011;5726;42.160;24.746;2024-02-23T12:53:59;13.97;;;9.73;;
11342;SDS011;5726;42.160;24.746;2024-02-23T12:56:25;15.30;;;10.17;;
11342;SDS011;5726;42.160;24.746;2024-02-23T12:58:51;15.67;;;9.57;;
11342;SDS011;5726;42.160;24.746;2024-02-23T13:01:18;14.60;;;9.60;;
11342;SDS011;5726;42.160;24.746;2024-02-23T13:03:44;15.87;;;9.80;;
11342;SDS011;5726;42.160;24.746;2024-02-23T13:06:10;14.57;;;9.07;;
11342;SDS011;5726;42.160;24.746;2024-02-23T13:08:35;13.00;;;9.03;;
11342;SDS011;5726;42.160;24.746;2024-02-23T13:11:01;12.77;;;9.80;;
11342;SDS011;5726;42.160;24.746;2024-02-23T13:13:26;13.70;;;9.70;;
11342;SDS011;5726;42.160;24.746;2024-02-23T13:15:53;14.50;;;9.00;;
11342;SDS011;5726;42.160;24.746;2024-02-23T13:18:18;14.27;;;9.13;;
11342;SDS011;5726;42.160;24.746;2024-02-23T13:20:44;13.90;;;8.77;;
11342;SDS011;5726;42.160;24.746;2024-02-23T13:23:10;13.37;;;8.67;;
11342;SDS011;5726;42.160;24.746;2024-02-23T13:25:40;12.90;;;8.43;;
11342;SDS011;5726;42.160;24.746;2024-02-23T13:28:05;13.13;;;7.93;;
11342;SDS011;5726;42.160;24.746;2024-02-23T13:30:32;11.67;;;7.77;;
11342;SDS011;5726;42.160;24.746;2024-02-23T13:32:58;12.57;;;8.00;;
11342;SDS011;5726;42.160;24.746;2024-02-23T13:35:25;13.67;;;7.83;;
11342;SDS011;5726;42.160;24.746;2024-02-23T13:37:51;10.43;;;8.10;;
11342;SDS011;5726;42.160;24.746;2024-02-23T13:40:17;9.60;;;7.23;;
11342;SDS011;5726;42.160;24.746;2024-02-23T13:42:42;10.87;;;7.53;;
11342;SDS011;5726;42.160;24.746;2024-02-23T13:45:11;12.73;;;7.57;;
11342;SDS011;5726;42.160;24.746;2024-02-23T13:47:38;12.33;;;8.37;;
11342;SDS011;5726;42.160;24.746;2024-02-23T13:50:04;10.80;;;7.77;;
11342;SDS011;5726;42.160;24.746;2024-02-23T13:52:30;11.70;;;7.30;;
11342;SDS011;5726;42.160;24.746;2024-02-23T13:54:56;11.00;;;7.27;;
11342;SDS011;5726;42.160;24.746;2024-02-23T13:57:22;14.30;;;8.10;;
11342;SDS011;5726;42.160;24.746;2024-02-23T13:59:48;14.10;;;7.77;;
11342;SDS011;5726;42.160;24.746;2024-02-23T14:02:13;13.57;;;7.03;;
11342;SDS011;5726;42.160;24.746;2024-02-23T14:04:39;12.03;;;7.60;;
11342;SDS011;5726;42.160;24.746;2024-02-23T14:07:05;9.57;;;6.83;;
11342;SDS011;5726;42.160;24.746;2024-02-23T14:09:31;10.27;;;6.50;;
11342;SDS011;5726;42.160;24.746;2024-02-23T14:11:57;9.77;;;6.70;;
11342;SDS011;5726;42.160;24.746;2024-02-23T14:14:22;9.60;;;6.50;;
11342;SDS011;5726;42.160;24.746;2024-02-23T14:16:48;9.97;;;7.20;;
11342;SDS011;5726;42.160;24.746;2024-02-23T14:19:14;10.20;;;6.57;;